Time;durP1;ratioP1;P1;durP2;ratioP2;P2;SDS_P1;SDS_P2;PMS_P1;PMS_P2;Temp;Humidity;BMP_temperature;BMP_pressure;BME280_temperature;BME280_humidity;BME280_pressure;Samples;Min_cycle;Max_cycle;Signal;HPM_P1;HPM_P2
2022/01/31 07:58:47;;;;;;;21.42;6.28;;;;;;;4.74;89.17;100740.88;5302485;27;20340;-68
2022/01/31 08:01:18;;;;;;;23.92;6.20;;;;;;;4.78;89.48;100746.66;5289896;28;20035;-68
2022/01/31 08:03:50;;;;;;;19.27;5.55;;;;;;;4.78;89.10;100732.94;5279920;28;20387;-68
2022/01/31 08:06:21;;;;;;;18.83;6.60;;;;;;;4.83;88.11;100748.66;5280481;28;20082;-68
2022/01/31 08:08:54;;;;;;;16.52;5.60;;;;;;;4.84;88.65;100745.69;5279223;28;20056;-68
2022/01/31 08:11:31;;;;;;;16.05;5.13;;;;;;;4.88;87.75;100746.00;5280017;28;20021;-69
2022/01/31 08:14:07;;;;;;;16.13;5.95;;;;;;;4.88;87.93;100740.50;5284582;28;20475;-69
2022/01/31 08:16:39;;;;;;;22.30;5.97;;;;;;;4.90;87.93;100721.84;5297989;28;20070;-69
2022/01/31 08:19:10;;;;;;;15.27;6.03;;;;;;;4.93;87.15;100733.13;5279756;28;20041;-69
2022/01/31 08:21:41;;;;;;;14.85;5.93;;;;;;;4.96;86.53;100729.06;5279297;28;20028;-69
2022/01/31 08:24:13;;;;;;;30.60;7.82;;;;;;;4.97;87.07;100745.28;5279714;28;20024;-69
2022/01/31 08:26:44;;;;;;;21.10;6.72;;;;;;;4.95;88.41;100761.22;5279107;28;20036;-69
2022/01/31 08:29:37;;;;;;;22.55;5.30;;;;;;;4.89;87.99;100762.22;5278718;28;20025;-69
2022/01/31 08:32:17;;;;;;;24.10;5.97;;;;;;;4.86;88.63;100740.75;5293970;28;20043;-69
2022/01/31 08:37:38;;;;;;;28.35;8.25;;;;;;;4.86;89.21;100751.75;5278975;28;20477;-69
2022/01/31 08:40:10;;;;;;;23.48;7.13;;;;;;;4.87;88.80;100755.34;5279085;28;20053;-69
2022/01/31 08:42:41;;;;;;;24.10;6.97;;;;;;;4.91;88.04;100771.06;5278576;28;20029;-70
2022/01/31 08:45:12;;;;;;;24.35;6.47;;;;;;;4.89;89.17;100770.47;5279187;28;20107;-69
2022/01/31 08:47:44;;;;;;;24.42;6.20;;;;;;;4.94;87.83;100778.78;5282557;28;20029;-69
2022/01/31 08:50:15;;;;;;;20.83;7.43;;;;;;;4.97;87.67;100758.22;5299446;28;20043;-69
2022/01/31 08:52:46;;;;;;;23.52;7.20;;;;;;;5.03;86.97;100773.69;5300643;28;20082;-69
2022/01/31 08:55:20;;;;;;;18.08;6.20;;;;;;;5.04;87.24;100755.25;5300170;28;20031;-69
2022/01/31 08:57:55;;;;;;;18.65;5.95;;;;;;;5.05;86.76;100757.78;5313447;28;20039;-69
2022/01/31 09:00:34;;;;;;;23.83;6.03;;;;;;;5.07;87.48;100761.09;5308290;28;20478;-69
2022/01/31 09:05:57;;;;;;;21.77;6.28;;;;;;;5.07;87.90;100794.09;5248869;28;20032;-70
2022/01/31 09:08:28;;;;;;;26.77;6.35;;;;;;;5.08;88.55;100790.25;5294641;28;20493;-71
2022/01/31 09:11:00;;;;;;;22.95;7.07;;;;;;;4.99;89.57;100786.28;5274841;28;20029;-72
2022/01/31 09:13:38;;;;;;;20.83;6.80;;;;;;;4.88;90.39;100817.44;5281387;28;20032;-72
2022/01/31 09:16:10;;;;;;;24.00;5.65;;;;;;;4.92;90.22;100807.63;5285769;28;20027;-71
2022/01/31 09:18:42;;;;;;;17.70;5.72;;;;;;;4.91;89.96;100783.94;5284154;28;20029;-72
2022/01/31 09:21:13;;;;;;;22.17;5.50;;;;;;;4.89;89.71;100786.97;5284407;28;20438;-73
2022/01/31 09:23:51;;;;;;;15.48;6.25;;;;;;;4.87;89.47;100794.63;5305389;28;20020;-72
2022/01/31 09:26:26;;;;;;;17.75;6.07;;;;;;;4.90;88.74;100788.63;5306320;28;20032;-72
2022/01/31 09:28:58;;;;;;;23.35;5.07;;;;;;;4.99;88.10;100786.28;5307178;28;20020;-71
2022/01/31 09:31:29;;;;;;;15.10;6.15;;;;;;;5.00;87.48;100785.19;5297374;28;20545;-72
2022/01/31 09:34:00;;;;;;;15.60;5.68;;;;;;;5.03;88.24;100786.59;5285122;28;20066;-71
2022/01/31 09:36:32;;;;;;;25.33;6.00;;;;;;;5.02;88.63;100791.28;5285009;28;20028;-73
2022/01/31 09:39:04;;;;;;;23.02;5.75;;;;;;;5.03;89.25;100792.09;5290420;28;20035;-73
2022/01/31 09:41:38;;;;;;;20.60;5.40;;;;;;;4.97;89.85;100793.94;5306507;28;20032;-72
2022/01/31 09:44:17;;;;;;;25.90;7.18;;;;;;;4.97;89.90;100807.69;5306463;28;20024;-72
2022/01/31 09:47:04;;;;;;;22.75;6.90;;;;;;;4.94;89.54;100817.28;5305782;28;20028;-72
2022/01/31 09:49:35;;;;;;;20.67;5.80;;;;;;;4.93;89.69;100834.00;5304288;28;20020;-73
2022/01/31 09:52:07;;;;;;;16.58;5.95;;;;;;;4.91;89.63;100834.28;5284673;28;20082;-73
2022/01/31 09:54:38;;;;;;;28.27;8.63;;;;;;;4.87;90.18;100829.53;5283701;28;20020;-73
2022/01/31 09:57:10;;;;;;;26.10;7.57;;;;;;;4.83;91.12;100842.09;5290185;28;20045;-74
2022/01/31 09:59:41;;;;;;;28.02;8.13;;;;;;;4.78;91.61;100837.34;5283907;28;20025;-73
2022/01/31 10:02:14;;;;;;;21.13;6.47;;;;;;;4.80;91.06;100865.41;5283412;28;20020;-74
2022/01/31 10:04:48;;;;;;;20.73;6.10;;;;;;;4.87;90.85;100854.25;5283577;28;20135;-74
2022/01/31 10:07:21;;;;;;;21.42;7.40;;;;;;;4.83;90.71;100869.56;5281869;28;20031;-73
2022/01/31 10:09:52;;;;;;;26.30;7.50;;;;;;;4.84;90.97;100874.00;5284518;28;20549;-73
2022/01/31 10:18:03;;;;;;;35.22;9.40;;;;;;;4.82;90.94;100884.41;5278894;28;20029;-72
2022/01/31 10:20:35;;;;;;;31.17;10.20;;;;;;;4.79;91.55;100870.09;5282989;28;20021;-73
2022/01/31 10:23:11;;;;;;;30.17;7.80;;;;;;;4.86;90.47;100880.06;5284051;28;20021;-72
2022/01/31 10:25:43;;;;;;;;;;;;;;;4.94;89.53;100893.41;5284653;28;20032;-73
2022/01/31 10:28:19;;;;;;;25.45;8.90;;;;;;;5.01;86.45;100905.03;5283724;28;19913;-72
2022/01/31 10:30:52;;;;;;;35.92;9.05;;;;;;;5.00;87.22;100912.44;5296897;28;20071;-73
2022/01/31 10:33:27;;;;;;;25.75;8.02;;;;;;;5.04;85.70;100901.81;5305767;28;20028;-73
2022/01/31 10:36:00;;;;;;;28.98;9.32;;;;;;;5.12;83.43;100890.38;5301043;28;20016;-72
2022/01/31 10:38:37;;;;;;;37.42;10.82;;;;;;;5.15;83.33;100911.03;5282919;28;20028;-70
2022/01/31 10:53:12;;;;;;;30.83;9.20;;;;;;;5.37;80.04;100924.84;5296660;28;20115;-70
2022/01/31 10:55:55;;;;;;;25.90;8.13;;;;;;;5.40;81.49;100929.84;5282464;28;20527;-71
2022/01/31 10:58:27;;;;;;;28.88;9.07;;;;;;;5.32;82.39;100949.53;5272954;28;20048;-70
2022/01/31 11:01:19;;;;;;;27.95;8.60;;;;;;;5.23;84.72;100949.91;5283005;28;20020;-70
2022/01/31 11:03:53;;;;;;;26.98;8.10;;;;;;;5.17;85.01;100941.88;5270170;28;20024;-69
2022/01/31 11:06:27;;;;;;;29.23;7.35;;;;;;;5.03;84.73;100944.09;5304467;28;20027;-69
2022/01/31 11:09:16;;;;;;;25.40;7.63;;;;;;;4.98;83.88;100938.53;5305047;28;20020;-69
2022/01/31 11:11:49;;;;;;;26.17;7.25;;;;;;;4.98;84.29;100938.53;5303764;28;20031;-69
2022/01/31 11:14:21;;;;;;;30.55;8.45;;;;;;;4.99;85.55;100946.53;5304636;28;20059;-70
2022/01/31 11:16:56;;;;;;;24.17;10.07;;;;;;;4.99;85.07;100953.94;5298652;28;20025;-69
2022/01/31 11:19:31;;;;;;;33.10;7.50;;;;;;;5.01;85.37;100965.50;5271998;28;20017;-69
2022/01/31 11:22:11;;;;;;;30.60;7.75;;;;;;;5.01;84.94;100957.25;5297385;28;20012;-70
2022/01/31 11:24:46;;;;;;;30.60;9.88;;;;;;;5.03;85.94;100968.00;5303463;28;20104;-69
2022/01/31 11:27:23;;;;;;;28.10;8.52;;;;;;;5.03;86.50;100966.09;5304393;28;20417;-69
2022/01/31 11:29:57;;;;;;;34.97;8.80;;;;;;;5.03;86.53;100957.84;5304510;28;20020;-68
2022/01/31 11:32:29;;;;;;;27.42;8.23;;;;;;;5.03;86.17;100971.59;5303269;28;20540;-68
2022/01/31 11:35:02;;;;;;;25.85;8.27;;;;;;;5.02;85.59;100978.19;5288131;28;20024;-69
2022/01/31 11:37:34;;;;;;;32.33;9.40;;;;;;;4.99;85.92;100992.44;5284552;28;20075;-68
2022/01/31 11:40:09;;;;;;;28.48;9.90;;;;;;;4.97;86.03;100986.34;5292227;28;20454;-69
2022/01/31 11:42:42;;;;;;;21.03;7.47;;;;;;;4.97;86.99;100981.69;5283193;28;20142;-69
2022/01/31 11:45:18;;;;;;;29.20;10.55;;;;;;;4.91;87.51;100987.31;5282451;28;20021;-69
2022/01/31 11:47:50;;;;;;;32.30;9.45;;;;;;;4.87;86.97;100969.69;5282996;28;20013;-69
2022/01/31 11:50:23;;;;;;;30.23;8.85;;;;;;;4.90;87.52;100975.50;5283205;28;20017;-69
2022/01/31 11:52:58;;;;;;;30.85;9.23;;;;;;;4.85;87.77;100982.84;5282087;28;20043;-69
2022/01/31 11:55:35;;;;;;;32.13;10.88;;;;;;;4.85;89.38;100999.31;5292351;28;20028;-70
2022/01/31 12:03:27;;;;;;;33.03;10.30;;;;;;;4.84;88.95;101000.41;5228575;28;20416;-68
2022/01/31 12:06:08;;;;;;;36.63;11.75;;;;;;;4.86;87.99;101006.47;5232217;28;20030;-68
2022/01/31 12:08:42;;;;;;;36.10;11.13;;;;;;;4.86;87.99;101004.59;5222015;28;20026;-69
2022/01/31 12:11:26;;;;;;;33.70;10.52;;;;;;;4.87;87.81;101022.72;5238089;28;20503;-69
2022/01/31 12:14:09;;;;;;;34.60;9.98;;;;;;;4.86;88.55;101017.47;5228995;28;20053;-68
2022/01/31 12:22:41;;;;;;;32.13;10.48;;;;;;;4.69;90.02;101034.75;5227728;28;20034;-69
2022/01/31 12:25:30;;;;;;;36.65;10.05;;;;;;;4.64;89.99;101028.34;5239473;28;20464;-70
2022/01/31 12:28:36;;;;;;;30.67;9.50;;;;;;;4.61;90.25;101018.69;5224842;28;20480;-69
2022/01/31 12:31:27;;;;;;;34.72;8.52;;;;;;;4.58;90.99;101038.41;5237978;28;20033;-69
2022/01/31 12:33:58;;;;;;;34.30;10.80;;;;;;;4.57;91.81;101069.69;5240382;28;20163;-69
2022/01/31 12:36:32;;;;;;;35.45;9.95;;;;;;;4.57;90.98;101042.22;5239864;28;20021;-70
2022/01/31 12:39:41;;;;;;;28.40;10.77;;;;;;;4.56;90.44;101046.06;5240798;28;20068;-70
2022/01/31 12:45:33;;;;;;;34.88;11.32;;;;;;;4.60;90.58;101046.38;5244222;28;20036;-69
2022/01/31 12:48:19;;;;;;;28.63;8.77;;;;;;;4.55;91.23;101052.59;5238702;28;20032;-70
2022/01/31 12:50:51;;;;;;;37.45;12.27;;;;;;;4.59;91.22;101053.78;5245147;28;20078;-69
2022/01/31 12:53:22;;;;;;;36.08;9.68;;;;;;;4.56;92.46;101049.63;5240677;28;20041;-70
2022/01/31 12:56:04;;;;;;;34.13;9.65;;;;;;;4.54;92.01;101061.94;5224806;28;20026;-70
2022/01/31 12:58:38;;;;;;;32.35;10.48;;;;;;;4.50;92.03;101069.84;5252224;28;20041;-70
2022/01/31 13:01:24;;;;;;;28.90;11.43;;;;;;;4.46;93.34;101085.13;5225836;28;20049;-69
2022/01/31 13:03:57;;;;;;;36.90;14.18;;;;;;;4.48;92.58;101106.88;5226110;28;20389;-69
2022/01/31 13:06:38;;;;;;;29.73;9.65;;;;;;;4.53;92.86;101087.75;5244267;28;20503;-69
2022/01/31 13:09:29;;;;;;;39.58;11.70;;;;;;;4.52;93.45;101075.06;5235955;28;20117;-69
2022/01/31 13:12:15;;;;;;;35.53;10.48;;;;;;;4.56;93.99;101073.53;5230961;28;20068;-69
2022/01/31 13:14:52;;;;;;;;;;;;;;;4.57;94.21;101087.00;5239790;28;20025;-70
2022/01/31 13:17:25;;;;;;;;;;;;;;;4.61;93.71;101081.88;5232271;28;20376;-68
2022/01/31 13:19:59;;;;;;;33.25;11.45;;;;;;;4.62;93.32;101104.66;5224216;28;19983;-69
2022/01/31 13:22:38;;;;;;;42.83;13.85;;;;;;;4.61;93.69;101100.25;5223663;28;20029;-68
2022/01/31 13:25:13;;;;;;;37.58;13.80;;;;;;;4.57;94.08;101092.47;5222589;28;20117;-68
2022/01/31 13:27:46;;;;;;;35.75;12.25;;;;;;;4.61;94.80;101098.34;5223715;28;20026;-68
2022/01/31 13:30:20;;;;;;;45.03;13.23;;;;;;;4.59;94.00;101097.75;5233559;28;20022;-67
2022/01/31 13:32:53;;;;;;;54.05;13.52;;;;;;;4.64;94.09;101080.53;5243298;28;20018;-67
2022/01/31 13:35:29;;;;;;;49.35;12.35;;;;;;;4.61;94.20;101105.75;5242969;28;20021;-68
2022/01/31 13:38:07;;;;;;;46.45;17.88;;;;;;;4.71;92.84;101111.47;5229543;28;20033;-68
2022/01/31 13:40:46;;;;;;;42.83;13.57;;;;;;;4.76;92.05;101106.91;5237147;28;20033;-70
2022/01/31 13:43:33;;;;;;;51.38;12.80;;;;;;;4.76;91.31;101117.88;5243617;28;20017;-69
2022/01/31 13:46:23;;;;;;;50.60;13.98;;;;;;;4.75;92.43;101118.94;5234680;28;20113;-70
2022/01/31 13:49:08;;;;;;;45.83;12.18;;;;;;;4.74;92.92;101121.97;5229967;28;20022;-69
2022/01/31 13:51:49;;;;;;;47.75;14.75;;;;;;;4.76;91.41;101128.03;5228582;28;20090;-69
2022/01/31 13:54:21;;;;;;;46.47;14.07;;;;;;;4.76;91.20;101120.63;5239497;28;20036;-70
2022/01/31 13:56:59;;;;;;;45.35;12.43;;;;;;;4.80;91.15;101123.72;5230430;28;20049;-69
2022/01/31 13:59:30;;;;;;;42.97;11.57;;;;;;;4.79;91.03;101133.88;5225385;28;20049;-69
2022/01/31 14:02:09;;;;;;;34.45;12.25;;;;;;;4.77;91.13;101136.03;5242875;28;20045;-69
2022/01/31 14:04:41;;;;;;;45.08;13.13;;;;;;;4.75;91.89;101143.69;5234057;28;20224;-69
2022/01/31 14:07:27;;;;;;;55.60;14.88;;;;;;;4.76;91.66;101139.88;5222063;28;20026;-69
2022/01/31 14:09:59;;;;;;;49.58;12.60;;;;;;;4.76;91.50;101145.38;5231825;28;20117;-70
2022/01/31 14:12:30;;;;;;;43.30;14.07;;;;;;;4.78;91.52;101167.94;5242301;28;20175;-69
2022/01/31 14:15:06;;;;;;;43.67;13.07;;;;;;;4.79;92.24;101177.84;5236579;28;20036;-70
2022/01/31 14:17:38;;;;;;;42.40;13.30;;;;;;;4.79;91.81;101169.59;5222430;28;20477;-70
2022/01/31 14:20:11;;;;;;;41.55;12.88;;;;;;;4.76;92.11;101181.09;5221838;28;20500;-69
2022/01/31 14:22:42;;;;;;;34.53;11.30;;;;;;;4.75;91.15;101182.16;5222343;28;20084;-69
2022/01/31 14:25:13;;;;;;;39.55;9.95;;;;;;;4.79;90.62;101196.25;5226340;28;20029;-70
2022/01/31 14:27:52;;;;;;;47.42;10.63;;;;;;;4.79;91.39;101182.50;5230456;28;20017;-70
2022/01/31 14:30:23;;;;;;;37.83;13.38;;;;;;;4.74;91.46;101179.66;5245550;28;20048;-69
2022/01/31 14:32:59;;;;;;;34.40;10.25;;;;;;;4.78;91.90;101198.16;5256442;28;20595;-70
2022/01/31 14:35:34;;;;;;;46.85;16.58;;;;;;;4.77;91.46;101223.97;5237804;28;20086;-70
2022/01/31 14:38:32;;;;;;;42.17;12.10;;;;;;;4.78;91.42;101214.66;5250049;28;20044;-70
2022/01/31 14:41:11;;;;;;;42.67;9.50;;;;;;;4.77;92.51;101229.47;5253093;28;20018;-70
2022/01/31 14:49:26;;;;;;;47.10;14.18;;;;;;;4.75;93.21;101237.09;5249762;28;20029;-69
2022/01/31 14:52:04;;;;;;;49.00;13.95;;;;;;;4.68;93.46;101222.69;5242016;28;20392;-67
2022/01/31 14:54:38;;;;;;;41.40;10.50;;;;;;;4.70;93.25;101245.22;5239628;28;20061;-69
2022/01/31 14:57:10;;;;;;;35.90;10.57;;;;;;;4.73;93.62;101247.53;5226335;28;20427;-67
2022/01/31 14:59:42;;;;;;;42.15;13.93;;;;;;;4.71;93.36;101249.66;5240148;28;20033;-69
2022/01/31 15:02:13;;;;;;;42.50;12.38;;;;;;;4.70;93.65;101244.41;5234571;28;20048;-68
2022/01/31 15:04:44;;;;;;;52.92;14.52;;;;;;;4.70;93.47;101242.47;5229345;28;20033;-69
2022/01/31 15:07:16;;;;;;;49.95;14.50;;;;;;;4.74;93.18;101240.94;5227717;28;20025;-69
2022/01/31 15:09:47;;;;;;;48.10;11.98;;;;;;;4.76;93.08;101269.00;5241112;28;20029;-68
2022/01/31 15:12:18;;;;;;;37.58;10.18;;;;;;;4.83;92.96;101270.78;5229258;28;20026;-70
2022/01/31 15:14:50;;;;;;;40.85;11.02;;;;;;;4.73;93.39;101291.50;5241961;28;20103;-68
2022/01/31 15:17:22;;;;;;;42.08;12.20;;;;;;;4.73;93.22;101282.38;5240124;28;20112;-69
2022/01/31 15:19:53;;;;;;;45.80;10.48;;;;;;;4.73;92.69;101272.25;5229315;28;20106;-69
2022/01/31 15:22:25;;;;;;;46.83;12.18;;;;;;;4.77;92.54;101281.66;5221518;28;20512;-69
2022/01/31 15:24:58;;;;;;;36.78;10.65;;;;;;;4.83;90.76;101295.53;5220280;28;20025;-70
2022/01/31 15:27:29;;;;;;;38.22;12.50;;;;;;;4.85;90.38;101285.13;5224725;28;20034;-70
2022/01/31 15:30:05;;;;;;;39.30;10.95;;;;;;;4.86;90.84;101281.28;5235020;28;20029;-70
2022/01/31 15:32:36;;;;;;;39.17;9.60;;;;;;;4.91;89.04;101281.41;5238631;28;20037;-69
2022/01/31 15:35:09;;;;;;;40.65;11.30;;;;;;;4.93;88.61;101321.31;5220983;28;20022;-69
2022/01/31 15:37:47;;;;;;;39.53;10.40;;;;;;;4.94;88.60;101305.69;5238411;28;20036;-70
2022/01/31 15:40:21;;;;;;;39.28;10.77;;;;;;;4.95;89.22;101307.34;5241426;28;20572;-69
2022/01/31 15:42:54;;;;;;;35.78;10.02;;;;;;;4.93;89.45;101317.75;5241254;28;20025;-69
2022/01/31 15:45:25;;;;;;;38.33;10.13;;;;;;;4.91;89.38;101317.13;5233087;28;20025;-69
2022/01/31 15:47:57;;;;;;;41.15;10.60;;;;;;;4.93;89.19;101339.72;5221109;28;20381;-69
2022/01/31 15:50:28;;;;;;;35.72;10.52;;;;;;;4.90;89.48;101348.47;5224897;28;20041;-69
2022/01/31 15:53:00;;;;;;;48.42;18.30;;;;;;;4.88;90.08;101356.09;5224840;28;20080;-71
2022/01/31 15:55:31;;;;;;;37.67;12.00;;;;;;;4.84;90.27;101355.75;5253386;28;20084;-71
2022/01/31 15:58:03;;;;;;;38.30;9.50;;;;;;;4.86;90.18;101369.25;5236190;28;20026;-71
2022/01/31 16:00:35;;;;;;;41.17;12.82;;;;;;;4.84;90.65;101371.41;5243205;28;20026;-69
2022/01/31 16:03:14;;;;;;;45.63;13.27;;;;;;;4.80;90.58;101382.03;5235271;28;20045;-69
2022/01/31 16:05:47;;;;;;;37.92;10.93;;;;;;;4.75;90.09;101380.00;5237140;28;20025;-68
2022/01/31 16:08:18;;;;;;;38.05;9.70;;;;;;;4.71;90.77;101389.81;5257646;28;20025;-68
2022/01/31 16:10:51;;;;;;;44.65;12.27;;;;;;;4.71;91.05;101406.28;5245707;28;20175;-69
2022/01/31 16:13:22;;;;;;;37.42;11.27;;;;;;;4.68;90.74;101408.66;5255747;28;20116;-69
2022/01/31 16:15:56;;;;;;;40.45;11.77;;;;;;;4.65;90.85;101415.47;5240456;28;20091;-69
2022/01/31 16:18:27;;;;;;;42.28;13.27;;;;;;;4.63;91.25;101414.88;5241036;28;20033;-71
2022/01/31 16:20:58;;;;;;;52.90;17.27;;;;;;;4.67;91.35;101415.25;5244654;28;20017;-68
2022/01/31 16:23:29;;;;;;;50.78;12.32;;;;;;;4.91;91.04;101429.84;5242585;28;20030;-69
2022/01/31 16:26:02;;;;;;;36.72;10.57;;;;;;;4.86;89.48;101426.97;5256599;28;20032;-69
2022/01/31 16:28:33;;;;;;;38.15;10.13;;;;;;;4.94;89.45;101432.13;5229735;28;20033;-71
2022/01/31 16:31:07;;;;;;;42.00;10.82;;;;;;;5.05;89.14;101434.03;5233573;28;20036;-71
2022/01/31 16:33:39;;;;;;;37.97;11.43;;;;;;;5.13;89.16;101433.66;5244535;28;20021;-73
2022/01/31 16:36:10;;;;;;;36.17;9.57;;;;;;;5.20;87.66;101431.66;5235565;28;20392;-69
2022/01/31 16:38:41;;;;;;;40.47;11.10;;;;;;;5.06;86.26;101452.19;5247905;28;20059;-71
2022/01/31 16:41:13;;;;;;;34.60;8.90;;;;;;;5.03;85.92;101447.19;5252069;28;20032;-71
2022/01/31 16:43:45;;;;;;;32.58;9.20;;;;;;;5.01;85.13;101449.31;5248863;28;20033;-70
2022/01/31 16:46:17;;;;;;;39.35;9.88;;;;;;;5.04;85.86;101453.50;5242565;28;20504;-72
2022/01/31 16:48:48;;;;;;;34.22;10.45;;;;;;;5.03;85.05;101463.69;5235281;28;20041;-72
2022/01/31 16:51:20;;;;;;;32.30;10.40;;;;;;;5.05;85.19;101466.19;5248748;28;20025;-70
2022/01/31 16:53:51;;;;;;;32.22;8.52;;;;;;;5.03;85.16;101474.66;5245115;28;20037;-71
2022/01/31 16:56:23;;;;;;;43.72;11.63;;;;;;;5.07;84.60;101477.81;5247825;28;20026;-72
2022/01/31 16:58:55;;;;;;;33.28;11.18;;;;;;;5.10;83.22;101483.66;5232021;28;20034;-72
2022/01/31 17:01:28;;;;;;;33.45;11.07;;;;;;;5.11;83.31;101495.47;5236316;28;20406;-72
2022/01/31 17:03:59;;;;;;;33.42;10.30;;;;;;;5.09;83.10;101506.72;5229833;28;20025;-72
2022/01/31 17:06:31;;;;;;;30.85;9.45;;;;;;;5.08;83.24;101538.03;5243563;28;20465;-72
2022/01/31 17:09:02;;;;;;;32.72;9.93;;;;;;;5.02;84.79;101528.00;5248252;28;20021;-71
2022/01/31 17:11:34;;;;;;;35.83;9.48;;;;;;;4.98;84.79;101537.78;5234716;28;20033;-71
2022/01/31 17:14:06;;;;;;;42.50;10.48;;;;;;;4.93;85.38;101529.41;5237146;28;20021;-68
2022/01/31 17:16:38;;;;;;;34.65;9.93;;;;;;;4.95;86.50;101546.50;5236406;28;20033;-67
2022/01/31 17:19:09;;;;;;;39.28;10.50;;;;;;;4.91;86.49;101543.41;5237802;28;20481;-67
2022/01/31 17:21:41;;;;;;;29.13;10.50;;;;;;;4.93;86.83;101563.22;5244201;28;20030;-71
2022/01/31 17:24:13;;;;;;;44.17;10.77;;;;;;;4.94;86.83;101559.41;5243224;28;20025;-71
2022/01/31 17:26:45;;;;;;;40.70;11.48;;;;;;;4.94;86.02;101553.09;5229300;28;20092;-72
2022/01/31 17:29:17;;;;;;;35.83;10.48;;;;;;;4.99;84.98;101553.22;5258547;28;20021;-72
